sensor_id;sensor_type;location;lat;lon;timestamp;pressure;altitude;pressure_sealevel;temperature;humidity
76044;BME280;64740;34.694;33.088;2022-12-13T00:00:05;1035.7;;;21.4;57.2
76044;BME280;64740;34.694;33.088;2022-12-13T00:04:30;1035.7;;;21.4;57.3
76044;BME280;64740;34.694;33.088;2022-12-13T00:10:03;1035.6;;;21.3;57.4
76044;BME280;64740;34.694;33.088;2022-12-13T00:14:56;1035.6;;;21.3;57.5
76044;BME280;64740;34.694;33.088;2022-12-13T00:19:38;1035.5;;;21.3;57.6
76044;BME280;64740;34.694;33.088;2022-12-13T00:24:26;1035.4;;;21.3;57.8
76044;BME280;64740;34.694;33.088;2022-12-13T00:30:01;1035.4;;;21.2;57.9
76044;BME280;64740;34.694;33.088;2022-12-13T00:34:23;1035.4;;;21.3;57.9
76044;BME280;64740;34.694;33.088;2022-12-13T00:40:03;1035.3;;;21.3;57.8
76044;BME280;64740;34.694;33.088;2022-12-13T00:44:23;1035.2;;;21.3;57.8
76044;BME280;64740;34.694;33.088;2022-12-13T00:49:42;1035.2;;;21.3;57.8
76044;BME280;64740;34.694;33.088;2022-12-13T00:54:52;1035.3;;;21.3;57.8
76044;BME280;64740;34.694;33.088;2022-12-13T01:00:05;1035.2;;;21.2;57.9
76044;BME280;64740;34.694;33.088;2022-12-13T01:04:22;1035.2;;;21.2;58
76044;BME280;64740;34.694;33.088;2022-12-13T01:09:57;1035.2;;;21.2;57.8
76044;BME280;64740;34.694;33.088;2022-12-13T01:14:54;1035.2;;;21.2;57.7
76044;BME280;64740;34.694;33.088;2022-12-13T01:19:42;1035.3;;;21.1;57.7
76044;BME280;64740;34.694;33.088;2022-12-13T01:24:34;1035.4;;;21.1;57.7
76044;BME280;64740;34.694;33.088;2022-12-13T01:30:07;1035.3;;;21;57.8
76044;BME280;64740;34.694;33.088;2022-12-13T01:34:32;1035.4;;;21;57.8
76044;BME280;64740;34.694;33.088;2022-12-13T01:40:09;1035.6;;;21;57.8
76044;BME280;64740;34.694;33.088;2022-12-13T01:44:55;1035.7;;;21;57.8
76044;BME280;64740;34.694;33.088;2022-12-13T01:49:44;1035.7;;;21.1;57.8
76044;BME280;64740;34.694;33.088;2022-12-13T01:54:56;1035.7;;;21.1;57.8
76044;BME280;64740;34.694;33.088;2022-12-13T02:00:09;1035.6;;;21.1;57.7
76044;BME280;64740;34.694;33.088;2022-12-13T02:04:44;1035.5;;;21.2;57.7
76044;BME280;64740;34.694;33.088;2022-12-13T02:10:07;1035.5;;;21.2;57.6
76044;BME280;64740;34.694;33.088;2022-12-13T02:15:01;1035.5;;;21.2;57.5
76044;BME280;64740;34.694;33.088;2022-12-13T02:19:50;1035.5;;;21.2;57.5
76044;BME280;64740;34.694;33.088;2022-12-13T02:24:44;1035.5;;;21.2;57.5
76044;BME280;64740;34.694;33.088;2022-12-13T02:30:12;1035.5;;;21.2;57.5
76044;BME280;64740;34.694;33.088;2022-12-13T02:34:48;1035.4;;;21.2;57.6
76044;BME280;64740;34.694;33.088;2022-12-13T02:40:10;1035.4;;;21.2;57.5
76044;BME280;64740;34.694;33.088;2022-12-13T02:44:48;1035.5;;;21.2;57.4
76044;BME280;64740;34.694;33.088;2022-12-13T02:49:45;1035.5;;;21.2;57.4
76044;BME280;64740;34.694;33.088;2022-12-13T02:54:57;1035.5;;;21.3;57.4
76044;BME280;64740;34.694;33.088;2022-12-13T03:00:05;1035.4;;;21.3;57.4
76044;BME280;64740;34.694;33.088;2022-12-13T03:04:58;1035.3;;;21.3;57.4
76044;BME280;64740;34.694;33.088;2022-12-13T03:10:10;1035.2;;;21.2;57.5
76044;BME280;64740;34.694;33.088;2022-12-13T03:14:52;1035.3;;;21.2;57.7
76044;BME280;64740;34.694;33.088;2022-12-13T03:19:22;1035.4;;;21.2;57.7
76044;BME280;64740;34.694;33.088;2022-12-13T03:24:45;1035.4;;;21.2;57.8
76044;BME280;64740;34.694;33.088;2022-12-13T03:30:07;1035.5;;;21.2;57.8
76044;BME280;64740;34.694;33.088;2022-12-13T03:34:46;1035.6;;;21.2;57.8
76044;BME280;64740;34.694;33.088;2022-12-13T03:40:07;1035.6;;;21.2;57.9
76044;BME280;64740;34.694;33.088;2022-12-13T03:44:22;1035.7;;;21.2;57.8
76044;BME280;64740;34.694;33.088;2022-12-13T03:49:23;1035.7;;;21.2;57.8
76044;BME280;64740;34.694;33.088;2022-12-13T03:54:54;1035.7;;;21.2;57.6
76044;BME280;64740;34.694;33.088;2022-12-13T04:00:09;1035.6;;;21.2;57.7
76044;BME280;64740;34.694;33.088;2022-12-13T04:04:43;1035.6;;;21.2;57.6
76044;BME280;64740;34.694;33.088;2022-12-13T04:10:07;1035.5;;;21.2;57.6
76044;BME280;64740;34.694;33.088;2022-12-13T04:14:58;1035.6;;;21.2;57.6
76044;BME280;64740;34.694;33.088;2022-12-13T04:19:22;1035.7;;;21.2;57.6
76044;BME280;64740;34.694;33.088;2022-12-13T04:24:23;1035.8;;;21.1;57.7
76044;BME280;64740;34.694;33.088;2022-12-13T04:30:07;1035.9;;;21.1;57.8
76044;BME280;64740;34.694;33.088;2022-12-13T04:34:23;1036;;;21.1;57.8
76044;BME280;64740;34.694;33.088;2022-12-13T04:39:57;1036;;;21.1;57.7
76044;BME280;64740;34.694;33.088;2022-12-13T04:44:34;1036;;;21.1;57.7
76044;BME280;64740;34.694;33.088;2022-12-13T04:49:47;1036;;;21.1;57.6
76044;BME280;64740;34.694;33.088;2022-12-13T04:54:56;1036;;;21;57.6
76044;BME280;64740;34.694;33.088;2022-12-13T05:00:08;1036.1;;;21;57.6
76044;BME280;64740;34.694;33.088;2022-12-13T05:05:03;1036.1;;;21;57.7
76044;BME280;64740;34.694;33.088;2022-12-13T05:10:05;1036.1;;;21;57.6
76044;BME280;64740;34.694;33.088;2022-12-13T05:14:51;1036.1;;;21;57.6
76044;BME280;64740;34.694;33.088;2022-12-13T05:19:45;1036.1;;;21;57.7
76044;BME280;64740;34.694;33.088;2022-12-13T05:24:23;1036.2;;;21;57.7
76044;BME280;64740;34.694;33.088;2022-12-13T05:29:55;1036.1;;;21;57.7
76044;BME280;64740;34.694;33.088;2022-12-13T05:34:47;1036.2;;;21;57.7
76044;BME280;64740;34.694;33.088;2022-12-13T05:40:07;1036.3;;;21.1;57.7
76044;BME280;64740;34.694;33.088;2022-12-13T05:44:35;1036.3;;;21.2;57.6
76044;BME280;64740;34.694;33.088;2022-12-13T05:49:55;1036.4;;;21.2;57.5
76044;BME280;64740;34.694;33.088;2022-12-13T05:54:57;1036.4;;;21.3;57.4
76044;BME280;64740;34.694;33.088;2022-12-13T05:59:55;1036.5;;;21.3;57.4
76044;BME280;64740;34.694;33.088;2022-12-13T06:04:31;1036.5;;;21.3;57.4
76044;BME280;64740;34.694;33.088;2022-12-13T06:09:59;1036.6;;;21.4;57.4
76044;BME280;64740;34.694;33.088;2022-12-13T06:15:05;1036.6;;;21.4;57.3
76044;BME280;64740;34.694;33.088;2022-12-13T06:19:31;1036.7;;;21.4;57.2
76044;BME280;64740;34.694;33.088;2022-12-13T06:24:23;1036.7;;;21.5;57.1
76044;BME280;64740;34.694;33.088;2022-12-13T06:29:31;1036.6;;;21.6;57
76044;BME280;64740;34.694;33.088;2022-12-13T06:34:35;1036.6;;;21.6;56.9
76044;BME280;64740;34.694;33.088;2022-12-13T06:40:07;1036.6;;;21.8;56.9
76044;BME280;64740;34.694;33.088;2022-12-13T06:44:23;1036.6;;;21.9;56.8
76044;BME280;64740;34.694;33.088;2022-12-13T06:49:57;1036.5;;;22;56.8
76044;BME280;64740;34.694;33.088;2022-12-13T06:54:55;1036.5;;;22.1;57.1
76044;BME280;64740;34.694;33.088;2022-12-13T06:59:55;1036.5;;;22.3;57.3
76044;BME280;64740;34.694;33.088;2022-12-13T07:04:23;1036.5;;;22.4;57.4
76044;BME280;64740;34.694;33.088;2022-12-13T07:09:59;1036.6;;;22.5;57.2
76044;BME280;64740;34.694;33.088;2022-12-13T07:15:05;1036.7;;;22.7;57.1
76044;BME280;64740;34.694;33.088;2022-12-13T07:19:23;1036.7;;;22.8;56.9
76044;BME280;64740;34.694;33.088;2022-12-13T07:24:35;1036.7;;;22.9;56.8
76044;BME280;64740;34.694;33.088;2022-12-13T07:29:45;1036.7;;;23;56.5
76044;BME280;64740;34.694;33.088;2022-12-13T07:34:47;1036.8;;;23.1;56
76044;BME280;64740;34.694;33.088;2022-12-13T07:40:09;1036.9;;;23.2;55.4
76044;BME280;64740;34.694;33.088;2022-12-13T07:44:23;1036.8;;;23.3;54.9
76044;BME280;64740;34.694;33.088;2022-12-13T07:49:57;1036.8;;;23.4;54.6
76044;BME280;64740;34.694;33.088;2022-12-13T07:54:59;1036.8;;;23.4;54.2
76044;BME280;64740;34.694;33.088;2022-12-13T07:59:55;1036.9;;;23.5;54.1
76044;BME280;64740;34.694;33.088;2022-12-13T08:04:37;1036.8;;;23.6;53.9
76044;BME280;64740;34.694;33.088;2022-12-13T08:10:07;1036.8;;;23.7;54
76044;BME280;64740;34.694;33.088;2022-12-13T08:15:07;1036.8;;;23.7;54.2
76044;BME280;64740;34.694;33.088;2022-12-13T08:19:43;1036.8;;;23.7;53.9
76044;BME280;64740;34.694;33.088;2022-12-13T08:24:45;1036.8;;;23.8;53.8
76044;BME280;64740;34.694;33.088;2022-12-13T08:29:23;1036.8;;;23.9;53.8
76044;BME280;64740;34.694;33.088;2022-12-13T08:34:47;1036.7;;;24;53.9
76044;BME280;64740;34.694;33.088;2022-12-13T08:40:05;1036.6;;;24;53.8
76044;BME280;64740;34.694;33.088;2022-12-13T08:44:43;1036.7;;;24;53.6
76044;BME280;64740;34.694;33.088;2022-12-13T08:49:53;1036.6;;;24.1;53.7
76044;BME280;64740;34.694;33.088;2022-12-13T08:54:57;1036.5;;;24.2;53.6
76044;BME280;64740;34.694;33.088;2022-12-13T08:59:53;1036.6;;;24.3;53.6
76044;BME280;64740;34.694;33.088;2022-12-13T09:04:23;1036.6;;;24.5;53.5
76044;BME280;64740;34.694;33.088;2022-12-13T09:09:57;1036.5;;;24.6;53.8
76044;BME280;64740;34.694;33.088;2022-12-13T09:15:07;1036.5;;;24.7;53.7
76044;BME280;64740;34.694;33.088;2022-12-13T09:19:23;1036.4;;;24.8;53.6
76044;BME280;64740;34.694;33.088;2022-12-13T09:24:33;1036.4;;;24.8;53.4
76044;BME280;64740;34.694;33.088;2022-12-13T09:29:23;1036.4;;;24.9;53.2
76044;BME280;64740;34.694;33.088;2022-12-13T09:34:23;1036.3;;;25;52.9
76044;BME280;64740;34.694;33.088;2022-12-13T09:40:07;1036.3;;;25;52.8
76044;BME280;64740;34.694;33.088;2022-12-13T09:44:35;1036.3;;;24.8;52.7
76044;BME280;64740;34.694;33.088;2022-12-13T09:49:55;1036.3;;;24.6;52.8
76044;BME280;64740;34.694;33.088;2022-12-13T09:55:15;1036.3;;;24.7;52.6
76044;BME280;64740;34.694;33.088;2022-12-13T09:59:55;1036.2;;;24.9;52.3
76044;BME280;64740;34.694;33.088;2022-12-13T10:04:35;1036.2;;;24.9;52.2
76044;BME280;64740;34.694;33.088;2022-12-13T10:09:58;1036.1;;;24.9;52.1
76044;BME280;64740;34.694;33.088;2022-12-13T10:14:36;1036.1;;;24.9;51.9
76044;BME280;64740;34.694;33.088;2022-12-13T10:19:23;1036;;;24.9;51.7
76044;BME280;64740;34.694;33.088;2022-12-13T10:24:46;1036;;;25;51.4
76044;BME280;64740;34.694;33.088;2022-12-13T10:29:59;1036.1;;;25.1;51.1
76044;BME280;64740;34.694;33.088;2022-12-13T10:35:10;1035.9;;;24.9;50.7
76044;BME280;64740;34.694;33.088;2022-12-13T10:39:57;1035.8;;;24.7;51.2
76044;BME280;64740;34.694;33.088;2022-12-13T10:44:35;1035.8;;;24.9;51.4
76044;BME280;64740;34.694;33.088;2022-12-13T10:49:55;1035.8;;;25.2;51.3
76044;BME280;64740;34.694;33.088;2022-12-13T10:54:57;1035.7;;;25.5;51
76044;BME280;64740;34.694;33.088;2022-12-13T10:59:55;1035.7;;;25.6;50.6
76044;BME280;64740;34.694;33.088;2022-12-13T11:04:35;1035.6;;;25.5;50.8
76044;BME280;64740;34.694;33.088;2022-12-13T11:10:14;1035.6;;;25.2;51.2
76044;BME280;64740;34.694;33.088;2022-12-13T11:14:47;1035.6;;;25.3;50.9
76044;BME280;64740;34.694;33.088;2022-12-13T11:19:44;1035.6;;;25.4;50.7
76044;BME280;64740;34.694;33.088;2022-12-13T11:24:23;1035.7;;;25.2;51
76044;BME280;64740;34.694;33.088;2022-12-13T11:29:28;1035.7;;;25;51.3
76044;BME280;64740;34.694;33.088;2022-12-13T11:35:06;1035.7;;;24.8;51.8
76044;BME280;64740;34.694;33.088;2022-12-13T11:40:01;1035.7;;;24.6;52.1
76044;BME280;64740;34.694;33.088;2022-12-13T11:44:25;1035.6;;;24.5;52.3
76044;BME280;64740;34.694;33.088;2022-12-13T11:49:53;1035.7;;;24.4;52.3
76044;BME280;64740;34.694;33.088;2022-12-13T11:55:02;1035.7;;;24.3;52.3
76044;BME280;64740;34.694;33.088;2022-12-13T11:59:56;1035.7;;;24.3;52.6
76044;BME280;64740;34.694;33.088;2022-12-13T12:04:44;1035.8;;;24.3;52.8
76044;BME280;64740;34.694;33.088;2022-12-13T12:10:14;1035.8;;;24.2;52.8
76044;BME280;64740;34.694;33.088;2022-12-13T12:14:51;1035.8;;;24.3;52.7
76044;BME280;64740;34.694;33.088;2022-12-13T12:19:36;1035.8;;;24.4;52.5
76044;BME280;64740;34.694;33.088;2022-12-13T12:24:23;1035.7;;;24.6;52.3
76044;BME280;64740;34.694;33.088;2022-12-13T12:29:32;1035.6;;;25.1;51.8
76044;BME280;64740;34.694;33.088;2022-12-13T12:40:03;1035.6;;;26.8;49.1
76044;BME280;64740;34.694;33.088;2022-12-13T12:44:37;1035.6;;;27.2;48.1
76044;BME280;64740;34.694;33.088;2022-12-13T12:50:15;1035.5;;;27.9;46.9
76044;BME280;64740;34.694;33.088;2022-12-13T12:55:02;1035.6;;;28.5;45.7
76044;BME280;64740;34.694;33.088;2022-12-13T12:59:58;1035.6;;;29;44.7
76044;BME280;64740;34.694;33.088;2022-12-13T13:04:36;1035.6;;;29.3;44.2
76044;BME280;64740;34.694;33.088;2022-12-13T13:10:11;1035.9;;;28.4;44.5
76044;BME280;64740;34.694;33.088;2022-12-13T13:14:47;1035.9;;;28.4;44.5
76044;BME280;64740;34.694;33.088;2022-12-13T13:19:44;1036;;;27.6;45.4
76044;BME280;64740;34.694;33.088;2022-12-13T13:24:35;1036;;;26.9;46.1
76044;BME280;64740;34.694;33.088;2022-12-13T13:29:36;1035.8;;;26.9;46.3
76044;BME280;64740;34.694;33.088;2022-12-13T13:35:44;1035.6;;;27.3;46.2
76044;BME280;64740;34.694;33.088;2022-12-13T13:39:59;1035.5;;;27.5;46
76044;BME280;64740;34.694;33.088;2022-12-13T13:44:31;1035.7;;;27.4;46.1
76044;BME280;64740;34.694;33.088;2022-12-13T13:49:58;1035.6;;;27;46.6
76044;BME280;64740;34.694;33.088;2022-12-13T13:55:23;1035.7;;;26.7;47
76044;BME280;64740;34.694;33.088;2022-12-13T14:00:08;1035.8;;;26.4;47.4
76044;BME280;64740;34.694;33.088;2022-12-13T14:04:29;1035.7;;;26;48.1
76044;BME280;64740;34.694;33.088;2022-12-13T14:10:15;1035.7;;;25.6;49.1
76044;BME280;64740;34.694;33.088;2022-12-13T14:19:41;1035.9;;;24.9;50.6
76044;BME280;64740;34.694;33.088;2022-12-13T14:24:38;1035.9;;;24.6;51.1
76044;BME280;64740;34.694;33.088;2022-12-13T14:29:45;1035.8;;;24.3;51.4
76044;BME280;64740;34.694;33.088;2022-12-13T14:35:19;1035.7;;;23.9;52.4
76044;BME280;64740;34.694;33.088;2022-12-13T14:39:57;1035.7;;;23.9;52.4
76044;BME280;64740;34.694;33.088;2022-12-13T14:44:43;1035.7;;;23.8;52.9
76044;BME280;64740;34.694;33.088;2022-12-13T14:49:23;1035.7;;;23.6;53.4
76044;BME280;64740;34.694;33.088;2022-12-13T14:54:23;1035.7;;;23.5;53.9
76044;BME280;64740;34.694;33.088;2022-12-13T15:00:19;1035.8;;;23.4;54.3
76044;BME280;64740;34.694;33.088;2022-12-13T15:04:58;1035.8;;;23.3;54.5
76044;BME280;64740;34.694;33.088;2022-12-13T15:09:36;1035.9;;;23.2;54.7
76044;BME280;64740;34.694;33.088;2022-12-13T15:14:56;1035.9;;;23.1;55
76044;BME280;64740;34.694;33.088;2022-12-13T15:20:15;1036;;;23.1;55.2
76044;BME280;64740;34.694;33.088;2022-12-13T15:24:57;1036;;;23;55.4
76044;BME280;64740;34.694;33.088;2022-12-13T15:29:43;1036.1;;;22.9;55.6
76044;BME280;64740;34.694;33.088;2022-12-13T15:35:14;1036.2;;;22.7;56
76044;BME280;64740;34.694;33.088;2022-12-13T15:39:34;1036.2;;;22.7;56
76044;BME280;64740;34.694;33.088;2022-12-13T15:44:31;1036.2;;;22.7;56
76044;BME280;64740;34.694;33.088;2022-12-13T15:49:24;1036.2;;;22.6;56.1
76044;BME280;64740;34.694;33.088;2022-12-13T15:54:52;1036.3;;;22.5;56.1
76044;BME280;64740;34.694;33.088;2022-12-13T16:00:19;1036.4;;;22.4;56.3
76044;BME280;64740;34.694;33.088;2022-12-13T16:04:45;1036.4;;;22.3;56.4
76044;BME280;64740;34.694;33.088;2022-12-13T16:09:23;1036.3;;;22.3;56.6
76044;BME280;64740;34.694;33.088;2022-12-13T16:15:04;1036.3;;;22.3;56.7
76044;BME280;64740;34.694;33.088;2022-12-13T16:20:07;1036.4;;;22.2;56.9
76044;BME280;64740;34.694;33.088;2022-12-13T16:24:49;1036.5;;;22.2;57
76044;BME280;64740;34.694;33.088;2022-12-13T16:29:35;1036.6;;;22.1;57.2
76044;BME280;64740;34.694;33.088;2022-12-13T16:35:11;1036.6;;;22.1;57.3
76044;BME280;64740;34.694;33.088;2022-12-13T16:39:49;1036.6;;;22.1;57.3
76044;BME280;64740;34.694;33.088;2022-12-13T16:44:31;1036.6;;;22;57.3
76044;BME280;64740;34.694;33.088;2022-12-13T16:49:24;1036.6;;;22;57.4
76044;BME280;64740;34.694;33.088;2022-12-13T16:54:45;1036.6;;;22;57.4
76044;BME280;64740;34.694;33.088;2022-12-13T17:00:10;1036.7;;;22;57.5
76044;BME280;64740;34.694;33.088;2022-12-13T17:05:11;1036.7;;;21.9;57.6
76044;BME280;64740;34.694;33.088;2022-12-13T17:09:35;1036.7;;;21.9;57.6
76044;BME280;64740;34.694;33.088;2022-12-13T17:15:11;1036.7;;;21.9;57.8
76044;BME280;64740;34.694;33.088;2022-12-13T17:19:59;1036.7;;;21.9;57.8
76044;BME280;64740;34.694;33.088;2022-12-13T17:24:58;1036.8;;;21.9;57.8
76044;BME280;64740;34.694;33.088;2022-12-13T17:29:31;1036.8;;;21.9;57.8
76044;BME280;64740;34.694;33.088;2022-12-13T17:35:09;1036.8;;;21.9;57.9
76044;BME280;64740;34.694;33.088;2022-12-13T17:40:01;1036.8;;;21.9;58
76044;BME280;64740;34.694;33.088;2022-12-13T17:44:53;1036.8;;;21.9;58
76044;BME280;64740;34.694;33.088;2022-12-13T17:49:33;1036.9;;;21.9;58
76044;BME280;64740;34.694;33.088;2022-12-13T17:54:33;1036.9;;;21.8;58.1
76044;BME280;64740;34.694;33.088;2022-12-13T18:00:09;1037;;;21.8;58.2
76044;BME280;64740;34.694;33.088;2022-12-13T18:04:57;1037.1;;;21.7;58.3
76044;BME280;64740;34.694;33.088;2022-12-13T18:09:23;1037.2;;;21.7;58.4
76044;BME280;64740;34.694;33.088;2022-12-13T18:14:57;1037.2;;;21.7;58.4
76044;BME280;64740;34.694;33.088;2022-12-13T18:20:03;1037.2;;;21.8;58.4
76044;BME280;64740;34.694;33.088;2022-12-13T18:24:57;1037.2;;;21.8;58.5
76044;BME280;64740;34.694;33.088;2022-12-13T18:29:23;1037.2;;;21.8;58.5
76044;BME280;64740;34.694;33.088;2022-12-13T18:35:11;1037.4;;;21.7;58.6
76044;BME280;64740;34.694;33.088;2022-12-13T18:39:47;1037.4;;;21.7;58.6
76044;BME280;64740;34.694;33.088;2022-12-13T18:44:35;1037.4;;;21.6;58.8
76044;BME280;64740;34.694;33.088;2022-12-13T18:49:49;1037.3;;;21.6;58.9
76044;BME280;64740;34.694;33.088;2022-12-13T18:55:03;1037.2;;;21.6;58.9
76044;BME280;64740;34.694;33.088;2022-12-13T19:00:02;1037.2;;;21.7;58.9
76044;BME280;64740;34.694;33.088;2022-12-13T19:04:23;1037;;;21.7;58.9
76044;BME280;64740;34.694;33.088;2022-12-13T19:10:11;1037;;;21.6;58.7
76044;BME280;64740;34.694;33.088;2022-12-13T19:15:03;1037;;;21.6;58.7
76044;BME280;64740;34.694;33.088;2022-12-13T19:19:49;1037.1;;;21.6;58.7
76044;BME280;64740;34.694;33.088;2022-12-13T19:24:47;1037.1;;;21.5;58.7
76044;BME280;64740;34.694;33.088;2022-12-13T19:29:49;1037.1;;;21.5;58.9
76044;BME280;64740;34.694;33.088;2022-12-13T19:35:15;1037.4;;;21.4;59.2
76044;BME280;64740;34.694;33.088;2022-12-13T19:39:36;1037.4;;;21.4;59.2
76044;BME280;64740;34.694;33.088;2022-12-13T19:44:47;1037.3;;;21.4;59.2
76044;BME280;64740;34.694;33.088;2022-12-13T19:50:01;1037.3;;;21.4;59.2
76044;BME280;64740;34.694;33.088;2022-12-13T19:54:37;1037.1;;;21.5;59.2
76044;BME280;64740;34.694;33.088;2022-12-13T20:00:13;1037.1;;;21.5;59.1
76044;BME280;64740;34.694;33.088;2022-12-13T20:05:03;1037.1;;;21.5;59.1
76044;BME280;64740;34.694;33.088;2022-12-13T20:09:59;1037.1;;;21.4;59
76044;BME280;64740;34.694;33.088;2022-12-13T20:14:23;1037.2;;;21.4;58.9
76044;BME280;64740;34.694;33.088;2022-12-13T20:19:35;1037.3;;;21.4;58.8
76044;BME280;64740;34.694;33.088;2022-12-13T20:25:13;1037.3;;;21.3;58.7
76044;BME280;64740;34.694;33.088;2022-12-13T20:29:37;1037.3;;;21.3;58.7
76044;BME280;64740;34.694;33.088;2022-12-13T20:35:01;1037.3;;;21.3;58.6
76044;BME280;64740;34.694;33.088;2022-12-13T20:40:01;1037.4;;;21.2;58.7
76044;BME280;64740;34.694;33.088;2022-12-13T20:44:23;1037.3;;;21.1;58.9
76044;BME280;64740;34.694;33.088;2022-12-13T20:50:13;1037.3;;;21;59.1
76044;BME280;64740;34.694;33.088;2022-12-13T20:55:03;1037.3;;;21;59.1
76044;BME280;64740;34.694;33.088;2022-12-13T20:59:59;1037.2;;;21;59.2
76044;BME280;64740;34.694;33.088;2022-12-13T21:04:45;1037.2;;;21;59.2
76044;BME280;64740;34.694;33.088;2022-12-13T21:09:49;1037.1;;;21;59.2
76044;BME280;64740;34.694;33.088;2022-12-13T21:15:16;1037;;;21;58.9
76044;BME280;64740;34.694;33.088;2022-12-13T21:19:52;1037;;;21;58.9
76044;BME280;64740;34.694;33.088;2022-12-13T21:24:48;1037;;;20.9;59
76044;BME280;64740;34.694;33.088;2022-12-13T21:29:59;1037;;;20.9;59
76044;BME280;64740;34.694;33.088;2022-12-13T21:34:36;1037;;;20.8;59
76044;BME280;64740;34.694;33.088;2022-12-13T21:40:13;1036.9;;;20.8;59
76044;BME280;64740;34.694;33.088;2022-12-13T21:45:11;1036.7;;;20.8;59
76044;BME280;64740;34.694;33.088;2022-12-13T21:50:10;1036.7;;;20.8;58.9
76044;BME280;64740;34.694;33.088;2022-12-13T21:54:44;1036.7;;;20.8;58.9
76044;BME280;64740;34.694;33.088;2022-12-13T21:59:57;1036.6;;;20.8;58.8
76044;BME280;64740;34.694;33.088;2022-12-13T22:05:09;1036.5;;;20.7;58.7
76044;BME280;64740;34.694;33.088;2022-12-13T22:09:45;1036.5;;;20.7;58.7
76044;BME280;64740;34.694;33.088;2022-12-13T22:14:43;1036.5;;;20.7;58.7
76044;BME280;64740;34.694;33.088;2022-12-13T22:20:12;1036.5;;;20.5;58.7
76044;BME280;64740;34.694;33.088;2022-12-13T22:24:23;1036.5;;;20.5;58.7
76044;BME280;64740;34.694;33.088;2022-12-13T22:30:10;1036.5;;;20.5;58.7
76044;BME280;64740;34.694;33.088;2022-12-13T22:34:59;1036.5;;;20.5;58.7
76044;BME280;64740;34.694;33.088;2022-12-13T22:39:58;1036.5;;;20.5;58.8
76044;BME280;64740;34.694;33.088;2022-12-13T22:44:43;1036.6;;;20.5;58.6
76044;BME280;64740;34.694;33.088;2022-12-13T22:49:46;1036.5;;;20.5;58.6
76044;BME280;64740;34.694;33.088;2022-12-13T22:55:09;1036.5;;;20.4;58.5
76044;BME280;64740;34.694;33.088;2022-12-13T22:59:35;1036.5;;;20.4;58.5
76044;BME280;64740;34.694;33.088;2022-12-13T23:04:23;1036.5;;;20.4;58.5
76044;BME280;64740;34.694;33.088;2022-12-13T23:09:56;1036.4;;;20.4;58.3
76044;BME280;64740;34.694;33.088;2022-12-13T23:15:08;1036.4;;;20.4;58.3
76044;BME280;64740;34.694;33.088;2022-12-13T23:20:05;1036.5;;;20.4;58.2
76044;BME280;64740;34.694;33.088;2022-12-13T23:24:55;1036.4;;;20.4;58.2
76044;BME280;64740;34.694;33.088;2022-12-13T23:29:53;1036.4;;;20.4;58.2
76044;BME280;64740;34.694;33.088;2022-12-13T23:34:31;1036.5;;;20.4;58.2
76044;BME280;64740;34.694;33.088;2022-12-13T23:40:04;1036.6;;;20.4;58.1
76044;BME280;64740;34.694;33.088;2022-12-13T23:45:05;1036.6;;;20.4;58
76044;BME280;64740;34.694;33.088;2022-12-13T23:49:23;1036.6;;;20.3;57.9
76044;BME280;64740;34.694;33.088;2022-12-13T23:54:43;1036.7;;;20.3;57.9
